createdAt,value
2022-11-24T00:01:08.870Z,99889.72
2022-11-24T00:03:37.155Z,99890.59
2022-11-24T00:06:07.379Z,99890.63
2022-11-24T00:08:35.694Z,99891.53
2022-11-24T00:11:05.401Z,99895.81
2022-11-24T00:13:34.557Z,99895.03
2022-11-24T00:16:09.172Z,99895.88
2022-11-24T00:18:37.536Z,99892.41
2022-11-24T00:21:05.724Z,99881.19
2022-11-24T00:23:33.749Z,99890.72
2022-11-24T00:26:06.895Z,99897.63
2022-11-24T00:28:36.568Z,99892.47
2022-11-24T00:31:05.757Z,99891.63
2022-11-24T00:33:35.448Z,99889.13
2022-11-24T00:36:03.410Z,99895.16
2022-11-24T00:38:31.327Z,99891.75
2022-11-24T00:40:59.618Z,99899.50
2022-11-24T00:43:27.493Z,99894.41
2022-11-24T00:45:55.540Z,99884.88
2022-11-24T00:48:23.902Z,99896.09
2022-11-24T00:51:01.365Z,99893.50
2022-11-24T00:53:29.417Z,99899.53
2022-11-24T00:55:57.783Z,99907.34
2022-11-24T00:58:26.408Z,99905.66
2022-11-24T01:00:54.642Z,99909.16
2022-11-24T01:03:23.077Z,99909.28
2022-11-24T01:05:50.993Z,99921.34
2022-11-24T01:08:20.344Z,99923.09
2022-11-24T01:10:48.245Z,99931.78
2022-11-24T01:13:16.118Z,99931.75
2022-11-24T01:15:44.165Z,99924.84
2022-11-24T01:18:13.187Z,99933.41
2022-11-24T01:20:41.098Z,99928.22
2022-11-24T01:23:09.050Z,99938.59
2022-11-24T01:25:40.641Z,99938.63
2022-11-24T01:28:08.611Z,99948.94
2022-11-24T01:30:36.597Z,99941.16
2022-11-24T01:33:05.031Z,99954.09
2022-11-24T01:35:32.948Z,99949.72
2022-11-24T01:38:00.900Z,99940.19
2022-11-24T01:40:28.810Z,99954.81
2022-11-24T01:42:58.098Z,99951.28
2022-11-24T01:45:40.801Z,99952.09
2022-11-24T01:48:15.802Z,99958.06
2022-11-24T01:50:44.857Z,99954.56
2022-11-24T01:53:13.938Z,99952.59
2022-11-24T01:55:42.452Z,99956.88
2022-11-24T01:58:16.794Z,99951.66
2022-11-24T02:00:46.486Z,99960.22
2022-11-24T02:03:17.174Z,99963.59
2022-11-24T02:05:52.285Z,99961.88
2022-11-24T02:08:28.122Z,99963.63
2022-11-24T02:10:55.943Z,99967.13
2022-11-24T02:13:26.432Z,99964.44
2022-11-24T02:15:54.857Z,99971.31
2022-11-24T02:18:22.908Z,99971.34
2022-11-24T02:20:51.232Z,99979.13
2022-11-24T02:23:25.187Z,99964.47
2022-11-24T02:26:04.530Z,99976.53
2022-11-24T02:28:34.571Z,99977.41
2022-11-24T02:31:05.197Z,99983.47
2022-11-24T02:33:35.361Z,99981.69
2022-11-24T02:36:03.206Z,99984.25
2022-11-24T02:38:32.730Z,99982.50
2022-11-24T02:41:03.896Z,99983.31
2022-11-24T02:43:36.799Z,99981.53
2022-11-24T02:46:04.952Z,99975.47
2022-11-24T02:48:32.982Z,99986.59
2022-11-24T02:51:01.126Z,99979.63
2022-11-24T02:53:29.034Z,99972.63
2022-11-24T02:55:57.079Z,99981.19
2022-11-24T02:58:24.955Z,99983.78
2022-11-24T03:00:55.256Z,99979.50
2022-11-24T03:03:23.254Z,99976.91
2022-11-24T03:05:51.233Z,99983.84
2022-11-24T03:08:19.153Z,99973.50
2022-11-24T03:10:47.314Z,99976.94
2022-11-24T03:13:15.300Z,99992.50
2022-11-24T03:15:43.303Z,99979.50
2022-11-24T03:18:12.694Z,99984.63
2022-11-24T03:20:40.581Z,99978.53
2022-11-24T03:23:08.588Z,99988.03
2022-11-24T03:25:36.475Z,99988.94
2022-11-24T03:28:04.952Z,99984.63
2022-11-24T03:30:33.025Z,99990.63
2022-11-24T03:33:00.916Z,99994.09
2022-11-24T03:35:30.266Z,99995.78
2022-11-24T03:37:58.159Z,99996.63
2022-11-24T03:40:26.137Z,100001.78
2022-11-24T03:42:54.097Z,100005.19
2022-11-24T03:45:44.727Z,100012.88
2022-11-24T03:48:10.416Z,100008.53
2022-11-24T03:50:40.025Z,100015.41
2022-11-24T03:53:08.423Z,100013.59
2022-11-24T03:55:36.838Z,100005.72
2022-11-24T03:58:05.171Z,100006.53
2022-11-24T04:00:33.147Z,100007.41
2022-11-24T04:03:01.133Z,100003.06
2022-11-24T04:05:29.293Z,100016.03
2022-11-24T04:07:58.708Z,100002.97
2022-11-24T04:10:26.713Z,100017.69
2022-11-24T04:12:53.602Z,100015.94
2022-11-24T04:15:22.336Z,100023.78
2022-11-24T04:17:51.209Z,100026.38
2022-11-24T04:20:19.548Z,100035.03
2022-11-24T04:22:47.554Z,100036.00
2022-11-24T04:25:17.481Z,100033.38
2022-11-24T04:27:45.309Z,100037.63
2022-11-24T04:30:13.493Z,100037.63
2022-11-24T04:32:41.280Z,100036.75
2022-11-24T04:35:09.742Z,100036.78
2022-11-24T04:37:37.613Z,100038.44
2022-11-24T04:40:06.814Z,100041.06
2022-11-24T04:42:36.137Z,100039.31
2022-11-24T04:45:03.989Z,100041.97
2022-11-24T04:47:31.760Z,100037.63
2022-11-24T04:49:59.600Z,100049.75
2022-11-24T04:52:27.529Z,100047.13
2022-11-24T04:54:55.250Z,100053.16
2022-11-24T04:57:24.869Z,100053.00
2022-11-24T04:59:54.922Z,100050.41
2022-11-24T05:02:23.422Z,100053.00
2022-11-24T05:04:51.658Z,100057.28
2022-11-24T05:07:20.621Z,100061.59
2022-11-24T05:10:06.482Z,100061.53
2022-11-24T05:12:34.339Z,100067.56
2022-11-24T05:15:05.400Z,100061.44
2022-11-24T05:17:35.301Z,100059.66
2022-11-24T05:20:04.107Z,100070.97
2022-11-24T05:22:31.863Z,100075.22
2022-11-24T05:24:59.723Z,100074.41
2022-11-24T05:27:27.559Z,100077.88
2022-11-24T05:29:55.460Z,100079.56
2022-11-24T05:32:25.111Z,100081.28
2022-11-24T05:34:54.544Z,100083.88
2022-11-24T05:37:22.487Z,100090.81
2022-11-24T05:39:50.685Z,100086.47
2022-11-24T05:42:36.413Z,100096.03
2022-11-24T05:45:04.336Z,100094.28
2022-11-24T05:47:33.713Z,100085.63
2022-11-24T05:50:01.603Z,100094.25
2022-11-24T05:52:29.442Z,100098.59
2022-11-24T05:54:57.246Z,100100.31
2022-11-24T05:57:24.957Z,100110.69
2022-11-24T05:59:52.788Z,100109.75
2022-11-24T06:02:20.668Z,100119.25
2022-11-24T06:04:49.879Z,100114.91
2022-11-24T06:07:18.009Z,100130.44
2022-11-24T06:09:45.912Z,100129.56
2022-11-24T06:12:14.656Z,100145.22
2022-11-24T06:14:42.744Z,100146.03
2022-11-24T06:17:11.350Z,100148.50
2022-11-24T06:19:42.079Z,100155.44
2022-11-24T06:22:11.490Z,100150.25
2022-11-24T06:24:39.260Z,100165.84
2022-11-24T06:27:07.674Z,100158.97
2022-11-24T06:29:35.562Z,100165.88
2022-11-24T06:32:03.390Z,100159.84
2022-11-24T06:34:31.330Z,100169.41
2022-11-24T06:36:59.248Z,100167.69
2022-11-24T06:39:28.443Z,100170.28
2022-11-24T06:41:56.410Z,100176.34
2022-11-24T06:44:24.233Z,100185.06
2022-11-24T06:46:51.996Z,100188.59
2022-11-24T06:49:20.044Z,100186.91
2022-11-24T06:51:47.880Z,100196.47
2022-11-24T06:54:17.725Z,100198.31
2022-11-24T06:56:46.909Z,100198.34
2022-11-24T06:59:18.797Z,100183.66
2022-11-24T07:01:47.695Z,100181.09
2022-11-24T07:04:16.054Z,100194.91
2022-11-24T07:06:44.180Z,100204.41
2022-11-24T07:09:13.373Z,100201.81
2022-11-24T07:11:41.866Z,100201.03
2022-11-24T07:14:11.717Z,100211.38
2022-11-24T07:16:40.312Z,100220.03
2022-11-24T07:19:08.115Z,100216.59
2022-11-24T07:21:35.995Z,100226.09
2022-11-24T07:24:04.407Z,100226.09
2022-11-24T07:26:37.069Z,100238.22
2022-11-24T07:29:05.865Z,100228.69
2022-11-24T07:31:35.339Z,100246.88
2022-11-24T07:34:03.281Z,100250.34
2022-11-24T07:36:31.224Z,100254.66
2022-11-24T07:38:59.034Z,100259.88
2022-11-24T07:41:26.782Z,100269.41
2022-11-24T07:43:54.617Z,100268.63
2022-11-24T07:46:22.440Z,100267.78
2022-11-24T07:48:51.762Z,100273.00
2022-11-24T07:51:19.644Z,100279.06
2022-11-24T07:53:47.600Z,100289.50
2022-11-24T07:56:15.503Z,100290.38
2022-11-24T07:58:45.969Z,100300.75
2022-11-24T08:01:18.439Z,100305.97
2022-11-24T08:03:47.026Z,100313.81
2022-11-24T08:06:27.308Z,100318.13
2022-11-24T08:08:58.588Z,100323.31
2022-11-24T08:11:26.978Z,100324.19
2022-11-24T08:13:55.021Z,100327.56
2022-11-24T08:16:22.966Z,100324.97
2022-11-24T08:18:51.808Z,100324.91
2022-11-24T08:21:23.060Z,100327.47
2022-11-24T08:23:50.964Z,100337.81
2022-11-24T08:26:19.336Z,100335.16
2022-11-24T08:28:48.504Z,100337.69
2022-11-24T08:31:19.584Z,100343.63
2022-11-24T08:33:48.198Z,100342.63
2022-11-24T08:36:18.060Z,100343.34
2022-11-24T08:38:49.149Z,100348.91
2022-11-24T08:41:18.055Z,100344.56
2022-11-24T08:43:45.979Z,100354.09
2022-11-24T08:46:17.086Z,100359.13
2022-11-24T08:48:48.137Z,100357.72
2022-11-24T08:51:18.503Z,100364.91
2022-11-24T08:53:48.319Z,100377.94
2022-11-24T08:56:16.285Z,100385.63
2022-11-24T08:58:44.326Z,100380.31
2022-11-24T09:01:14.725Z,100386.50
2022-11-24T09:03:50.064Z,100396.78
2022-11-24T09:06:19.699Z,100396.91
2022-11-24T09:08:48.875Z,100392.72
2022-11-24T09:11:17.946Z,100402.22
2022-11-24T09:13:46.458Z,100402.97
2022-11-24T09:16:16.661Z,100407.44
2022-11-24T09:18:44.730Z,100411.69
2022-11-24T09:21:14.569Z,100419.47
2022-11-24T09:23:43.132Z,100420.97
2022-11-24T09:26:13.916Z,100424.25
2022-11-24T09:28:42.860Z,100425.16
2022-11-24T09:31:12.909Z,100427.91
2022-11-24T09:33:40.898Z,100425.31
2022-11-24T09:36:09.299Z,100438.25
2022-11-24T09:38:37.435Z,100434.00
2022-11-24T09:41:33.886Z,100440.91
2022-11-24T09:44:09.017Z,100452.31
2022-11-24T09:46:45.070Z,100452.34
2022-11-24T09:49:17.613Z,100456.63
2022-11-24T09:51:49.200Z,100459.94
2022-11-24T09:54:20.596Z,100456.47
2022-11-24T09:56:51.291Z,100465.00
2022-11-24T09:59:21.658Z,100464.09
2022-11-24T10:01:51.256Z,100465.56
2022-11-24T10:04:22.720Z,100469.00
2022-11-24T10:07:01.741Z,100474.81
2022-11-24T10:09:41.255Z,100470.25
2022-11-24T10:12:23.662Z,100467.41
2022-11-24T10:15:02.243Z,100475.25
2022-11-24T10:18:16.455Z,100477.91
2022-11-24T10:20:55.799Z,100475.09
2022-11-24T10:23:47.157Z,100481.66
2022-11-24T10:26:20.353Z,100483.69
2022-11-24T10:28:55.240Z,100486.47
2022-11-24T10:31:31.562Z,100483.81
2022-11-24T10:34:04.854Z,100489.00
2022-11-24T10:36:45.171Z,100480.94
2022-11-24T10:39:19.314Z,100485.81
2022-11-24T10:41:52.386Z,100502.47
2022-11-24T10:44:21.794Z,100500.97
2022-11-24T10:46:49.942Z,100496.63
2022-11-24T10:49:21.537Z,100496.31
2022-11-24T10:51:59.418Z,100497.41
2022-11-24T10:54:27.246Z,100499.75
2022-11-24T10:56:56.429Z,100498.22
2022-11-24T10:59:35.406Z,100499.16
2022-11-24T11:02:05.042Z,100508.19
2022-11-24T11:04:35.077Z,100507.25
2022-11-24T11:07:10.905Z,100508.19
2022-11-24T11:09:39.181Z,100513.78
2022-11-24T11:12:42.131Z,100497.09
2022-11-24T11:15:22.975Z,100503.28
2022-11-24T11:17:52.389Z,100508.44
2022-11-24T11:20:26.042Z,100506.47
2022-11-24T11:22:55.920Z,100510.19
2022-11-24T11:25:27.037Z,100506.09
2022-11-24T11:28:19.311Z,100512.56
2022-11-24T11:34:06.243Z,100516.94
2022-11-24T11:36:37.560Z,100520.88
2022-11-24T11:39:05.655Z,100517.44
2022-11-24T11:41:35.852Z,100524.63
2022-11-24T11:44:16.246Z,100519.03
2022-11-24T11:46:46.722Z,100532.31
2022-11-24T11:49:15.165Z,100525.97
2022-11-24T11:52:09.099Z,100526.75
2022-11-24T11:54:57.284Z,100532.56
2022-11-24T11:57:36.956Z,100532.66
2022-11-24T12:00:13.317Z,100522.22
2022-11-24T12:03:00.506Z,100532.56
2022-11-24T12:05:32.557Z,100527.94
2022-11-24T12:08:20.739Z,100530.94
2022-11-24T12:10:57.549Z,100538.50
2022-11-24T12:13:47.057Z,100533.28
2022-11-24T12:16:30.779Z,100529.00
2022-11-24T12:19:22.232Z,100530.19
2022-11-24T12:21:58.536Z,100533.03
2022-11-24T12:24:37.544Z,100533.34
2022-11-24T12:27:10.675Z,100541.34
2022-11-24T12:30:06.776Z,100526.53
2022-11-24T12:32:51.584Z,100525.97
2022-11-24T12:35:28.704Z,100531.94
2022-11-24T12:38:08.385Z,100536.38
2022-11-24T12:40:47.311Z,100538.09
2022-11-24T12:43:21.017Z,100528.31
2022-11-24T12:46:00.206Z,100525.66
2022-11-24T12:48:43.079Z,100530.22
2022-11-24T12:51:18.329Z,100520.81
2022-11-24T12:53:49.084Z,100520.28
2022-11-24T12:56:20.870Z,100522.00
2022-11-24T12:58:56.504Z,100514.28
2022-11-24T13:01:33.427Z,100515.94
2022-11-24T13:04:13.715Z,100514.53
2022-11-24T13:06:51.289Z,100512.34
2022-11-24T13:09:19.412Z,100519.16
2022-11-24T13:11:48.069Z,100518.53
2022-11-24T13:14:19.342Z,100515.53
2022-11-24T13:17:21.882Z,100518.63
2022-11-24T13:19:40.821Z,100525.88
2022-11-24T13:22:17.809Z,100536.69
2022-11-24T13:24:45.934Z,100526.22
2022-11-24T13:27:42.981Z,100540.19
2022-11-24T13:30:47.456Z,100533.31
2022-11-24T13:33:24.257Z,100542.66
2022-11-24T13:36:31.751Z,100539.06
2022-11-24T13:39:02.391Z,100542.75
2022-11-24T13:42:10.492Z,100546.34
2022-11-24T13:45:01.709Z,100540.22
2022-11-24T13:47:32.629Z,100540.44
2022-11-24T13:50:01.139Z,100546.94
2022-11-24T13:52:47.610Z,100552.19
2022-11-24T13:55:27.018Z,100550.31
2022-11-24T13:58:00.268Z,100540.47
2022-11-24T14:00:30.774Z,100551.66
2022-11-24T14:03:02.174Z,100546.00
2022-11-24T14:05:38.128Z,100546.88
2022-11-24T14:08:08.145Z,100545.44
2022-11-24T14:10:38.697Z,100541.59
2022-11-24T14:13:26.109Z,100547.13
2022-11-24T14:16:01.416Z,100549.16
2022-11-24T14:18:29.787Z,100543.22
2022-11-24T14:20:58.064Z,100547.50
2022-11-24T14:23:26.088Z,100545.31
2022-11-24T14:25:55.487Z,100542.22
2022-11-24T14:28:26.506Z,100542.09
2022-11-24T14:31:08.707Z,100546.09
2022-11-24T14:33:38.080Z,100537.16
2022-11-24T14:36:06.461Z,100538.81
2022-11-24T14:38:34.922Z,100547.72
2022-11-24T14:41:16.395Z,100541.16
2022-11-24T14:43:44.347Z,100557.53
2022-11-24T14:46:19.985Z,100554.25
2022-11-24T14:48:48.844Z,100552.59
2022-11-24T14:51:21.883Z,100550.19
2022-11-24T14:53:52.450Z,100559.00
2022-11-24T14:56:27.000Z,100553.91
2022-11-24T14:58:56.135Z,100546.78
2022-11-24T15:01:31.503Z,100539.69
2022-11-24T15:07:17.235Z,100551.69
2022-11-24T15:09:52.404Z,100543.09
2022-11-24T15:12:29.204Z,100554.28
2022-11-24T15:15:01.478Z,100561.72
2022-11-24T15:17:30.694Z,100565.34
2022-11-24T15:20:03.148Z,100567.16
2022-11-24T15:22:36.618Z,100576.19
2022-11-24T15:25:25.136Z,100573.72
2022-11-24T15:27:55.037Z,100585.09
2022-11-24T15:30:22.828Z,100581.78
2022-11-24T15:32:54.720Z,100588.09
2022-11-24T15:35:23.645Z,100597.78
2022-11-24T15:37:52.802Z,100598.25
2022-11-24T15:40:21.086Z,100592.25
2022-11-24T15:42:52.346Z,100599.41
2022-11-24T15:45:23.135Z,100595.91
2022-11-24T15:47:51.039Z,100592.50
2022-11-24T15:50:19.491Z,100591.63
2022-11-24T15:52:48.474Z,100586.41
2022-11-24T15:55:19.521Z,100585.81
2022-11-24T15:57:47.563Z,100578.91
2022-11-24T16:00:17.433Z,100581.66
2022-11-24T16:02:46.591Z,100587.75
2022-11-24T16:05:15.789Z,100588.69
2022-11-24T16:07:43.933Z,100605.19
2022-11-24T16:10:22.736Z,100610.47
2022-11-24T16:12:50.492Z,100605.50
2022-11-24T16:15:18.420Z,100610.06
2022-11-24T16:17:48.279Z,100615.28
2022-11-24T16:20:16.219Z,100622.31
2022-11-24T16:22:44.185Z,100624.47
2022-11-24T16:25:12.565Z,100616.69
2022-11-24T16:27:40.526Z,100618.63
2022-11-24T16:30:10.036Z,100618.81
2022-11-24T16:32:37.806Z,100621.44
2022-11-24T16:35:08.071Z,100618.88
2022-11-24T16:37:35.866Z,100615.50
2022-11-24T16:40:03.808Z,100619.06
2022-11-24T16:42:32.254Z,100619.00
2022-11-24T16:45:00.075Z,100624.34
2022-11-24T16:47:27.984Z,100626.13
2022-11-24T16:49:55.746Z,100621.91
2022-11-24T16:52:24.895Z,100618.47
2022-11-24T16:54:52.692Z,100625.53
2022-11-24T16:57:20.452Z,100620.16
2022-11-24T16:59:48.216Z,100615.81
2022-11-24T17:02:16.330Z,100622.81
2022-11-24T17:04:45.445Z,100630.66
2022-11-24T17:07:13.850Z,100624.63
2022-11-24T17:09:43.149Z,100636.72
2022-11-24T17:12:10.975Z,100632.47
2022-11-24T17:14:38.751Z,100636.06
2022-11-24T17:17:06.699Z,100636.06
2022-11-24T17:19:34.544Z,100635.19
2022-11-24T17:22:02.358Z,100630.84
2022-11-24T17:24:30.233Z,100630.94
2022-11-24T17:26:59.396Z,100626.63
2022-11-24T17:29:27.564Z,100620.56
2022-11-24T17:31:55.409Z,100637.91
2022-11-24T17:34:23.234Z,100643.94
2022-11-24T17:36:50.973Z,100657.84
2022-11-24T17:39:24.544Z,100653.47
2022-11-24T17:41:52.772Z,100659.66
2022-11-24T17:44:22.027Z,100651.97
2022-11-24T17:46:50.065Z,100653.69
2022-11-24T17:49:18.369Z,100652.06
2022-11-24T17:51:50.333Z,100651.22
2022-11-24T17:54:47.250Z,100658.16
2022-11-24T17:57:06.356Z,100647.81
2022-11-24T17:59:35.480Z,100660.94
2022-11-24T18:02:03.284Z,100661.81
2022-11-24T18:04:31.129Z,100662.75
2022-11-24T18:06:59.016Z,100662.75
2022-11-24T18:09:26.869Z,100663.59
2022-11-24T18:11:54.592Z,100664.53
2022-11-24T18:14:22.381Z,100662.88
2022-11-24T18:16:51.960Z,100671.56
2022-11-24T18:19:19.871Z,100662.03
2022-11-24T18:21:47.680Z,100659.47
2022-11-24T18:24:18.550Z,100664.69
2022-11-24T18:26:51.044Z,100659.53
2022-11-24T18:29:18.866Z,100658.66
2022-11-24T18:31:46.793Z,100668.22
2022-11-24T18:34:16.167Z,100656.97
2022-11-24T18:36:45.035Z,100652.66
2022-11-24T18:39:17.840Z,100662.19
2022-11-24T18:41:45.853Z,100652.75
2022-11-24T18:44:13.775Z,100663.16
2022-11-24T18:46:41.642Z,100650.13
2022-11-24T18:49:09.488Z,100654.47
2022-11-24T18:51:38.713Z,100641.47
2022-11-24T18:54:06.654Z,100640.63
2022-11-24T18:56:34.454Z,100648.44
2022-11-24T18:59:02.258Z,100638.88
2022-11-24T19:01:30.648Z,100644.94
2022-11-24T19:04:01.751Z,100639.78
2022-11-24T19:06:32.584Z,100640.69
2022-11-24T19:09:04.013Z,100648.53
2022-11-24T19:11:35.276Z,100636.44
2022-11-24T19:14:04.525Z,100647.72
2022-11-24T19:16:33.063Z,100640.78
2022-11-24T19:19:02.516Z,100643.34
2022-11-24T19:21:32.571Z,100649.44
2022-11-24T19:24:05.383Z,100647.69
2022-11-24T19:26:34.754Z,100654.66
2022-11-24T19:29:03.084Z,100656.38
2022-11-24T19:31:30.883Z,100651.22
2022-11-24T19:33:59.683Z,100639.97
2022-11-24T19:36:27.827Z,100642.59
2022-11-24T19:38:57.519Z,100633.09
2022-11-24T19:41:28.926Z,100647.81
2022-11-24T19:43:57.983Z,100636.53
2022-11-24T19:46:27.910Z,100643.50
2022-11-24T19:48:57.403Z,100639.22
2022-11-24T19:51:26.925Z,100634.00
2022-11-24T19:53:55.753Z,100643.53
2022-11-24T19:56:26.978Z,100654.78
2022-11-24T19:58:55.776Z,100653.09
2022-11-24T20:01:25.675Z,100665.22
2022-11-24T20:03:58.626Z,100655.66
2022-11-24T20:06:28.037Z,100653.97
2022-11-24T20:08:56.117Z,100660.91
2022-11-24T20:11:24.008Z,100660.03
2022-11-24T20:13:53.359Z,100664.38
2022-11-24T20:16:26.323Z,100663.50
2022-11-24T20:18:55.598Z,100648.78
2022-11-24T20:21:24.979Z,100656.59
2022-11-24T20:23:55.112Z,100665.25
2022-11-24T20:26:25.092Z,100664.38
2022-11-24T20:28:56.105Z,100661.78
2022-11-24T20:31:27.163Z,100664.38
2022-11-24T20:33:55.247Z,100653.13
2022-11-24T20:36:25.352Z,100653.16
2022-11-24T20:38:54.226Z,100656.59
2022-11-24T20:41:24.182Z,100642.78
2022-11-24T20:43:54.628Z,100644.47
2022-11-24T20:46:24.593Z,100647.09
2022-11-24T20:48:53.030Z,100638.44
2022-11-24T20:51:22.826Z,100639.28
2022-11-24T20:53:51.216Z,100647.94
2022-11-24T20:56:21.112Z,100646.19
2022-11-24T20:58:49.320Z,100653.13
2022-11-24T21:01:20.796Z,100644.50
2022-11-24T21:03:53.308Z,100646.19
2022-11-24T21:06:21.354Z,100658.31
2022-11-24T21:08:49.356Z,100648.78
2022-11-24T21:11:17.964Z,100656.59
2022-11-24T21:13:47.471Z,100656.56
2022-11-24T21:16:17.837Z,100652.22
2022-11-24T21:18:50.575Z,100652.22
2022-11-24T21:21:19.222Z,100649.63
2022-11-24T21:23:47.469Z,100648.75
2022-11-24T21:26:17.383Z,100651.34
2022-11-24T21:28:47.270Z,100639.25
2022-11-24T21:31:16.569Z,100644.44
2022-11-24T21:33:45.920Z,100653.09
2022-11-24T21:36:17.744Z,100647.03
2022-11-24T21:38:50.544Z,100652.22
2022-11-24T21:41:18.636Z,100653.94
2022-11-24T21:43:46.553Z,100652.22
2022-11-24T21:46:14.793Z,100651.31
2022-11-24T21:48:43.328Z,100651.31
2022-11-24T21:51:14.119Z,100647.03
2022-11-24T21:53:45.067Z,100640.97
2022-11-24T21:56:14.369Z,100634.06
2022-11-24T21:58:46.020Z,100633.19
2022-11-24T22:01:14.652Z,100636.66
2022-11-24T22:03:42.801Z,100622.81
2022-11-24T22:06:10.943Z,100629.75
2022-11-24T22:08:39.015Z,100629.75
2022-11-24T22:11:10.928Z,100637.53
2022-11-24T22:13:38.874Z,100626.28
2022-11-24T22:16:09.024Z,100632.34
2022-11-24T22:18:38.824Z,100629.75
2022-11-24T22:21:07.884Z,100634.94
2022-11-24T22:23:37.229Z,100640.13
2022-11-24T22:26:06.465Z,100633.22
2022-11-24T22:28:36.741Z,100631.47
2022-11-24T22:31:05.869Z,100623.69
2022-11-24T22:33:34.262Z,100626.28
2022-11-24T22:36:03.598Z,100621.09
2022-11-24T22:38:33.507Z,100619.38
2022-11-24T22:41:03.020Z,100622.84
2022-11-24T22:43:32.790Z,100627.13
2022-11-24T22:46:06.040Z,100621.94
2022-11-24T22:48:34.191Z,100625.44
2022-11-24T22:51:03.339Z,100615.03
2022-11-24T22:53:31.753Z,100599.47
2022-11-24T22:56:02.271Z,100613.34
2022-11-24T22:58:30.475Z,100600.34
2022-11-24T23:01:04.326Z,100601.22
2022-11-24T23:03:34.396Z,100592.56
2022-11-24T23:06:02.756Z,100585.66
2022-11-24T23:08:33.209Z,100595.19
2022-11-24T23:11:02.152Z,100589.09
2022-11-24T23:13:30.360Z,100602.94
2022-11-24T23:16:02.461Z,100593.44
2022-11-24T23:18:30.639Z,100592.56
2022-11-24T23:21:05.873Z,100584.75
2022-11-24T23:23:34.133Z,100592.53
2022-11-24T23:26:02.265Z,100589.94
2022-11-24T23:28:30.029Z,100596.00
2022-11-24T23:31:01.676Z,100595.16
2022-11-24T23:33:29.489Z,100604.66
2022-11-24T23:35:57.363Z,100606.38
2022-11-24T23:38:30.172Z,100601.19
2022-11-24T23:40:58.240Z,100606.41
2022-11-24T23:43:26.337Z,100598.63
2022-11-24T23:45:54.363Z,100602.06
2022-11-24T23:48:22.247Z,100599.47
2022-11-24T23:50:50.039Z,100596.03
2022-11-24T23:53:17.908Z,100598.63
2022-11-24T23:55:53.655Z,100589.09
2022-11-24T23:58:21.329Z,100592.56
